Dragocidental — CSYN4 — position and weather

sailwx.info

Track history (hours):
 
Tides and Currents Weather Stations Pressure Air Temp Water Temp Dewpoint Dewpoint Depression Visibility Wind Speed Wind Dir Waves Ship Positions

Dragocidental

Last reported at 2016-Feb-09 06:32 UTC. Time now 2016-Feb-09 07:44 UTC.
Position N 36°57' W 025°09'.

Length 30 m.

Type: Dredging. MMSI: 204671360.

Date/timePositionNaut miles runAvg speedWind from/ knotsBaromVisibWave heightAir tempDewpointWater temp
2016-Feb-09 06:32N 36°57' W 025°09'0 0.0
2016-Feb-09 05:32N 36°57' W 025°09'0 0.0
2016-Feb-09 04:32N 36°57' W 025°09'0 0.0
2016-Feb-09 03:32N 36°57' W 025°09'0 0.0
2016-Feb-09 02:32N 36°57' W 025°09'0 0.0
2016-Feb-09 01:32N 36°57' W 025°09'0 0.0
2016-Feb-09 00:32N 36°57' W 025°09'0 0.0
2016-Feb-08 23:32N 36°57' W 025°09'0 0.0
2016-Feb-08 22:32N 36°57' W 025°09'0 0.0
2016-Feb-08 21:32N 36°57' W 025°09'0 0.0
2016-Feb-08 20:32N 36°57' W 025°09'0 0.0
2016-Feb-08 19:32N 36°57' W 025°09'0 0.0
2016-Feb-08 18:32N 36°57' W 025°09'1 1.2
2016-Feb-08 17:33N 36°56' W 025°08'5 1.5
2016-Feb-08 14:28N 36°56' W 025°02'2 1.2
2016-Feb-08 12:33N 36°56' W 025°05'4 3.5
2016-Feb-08 11:33N 36°57' W 025°09'0 0.0
2016-Feb-08 10:33N 36°57' W 025°09'0 0.0
2016-Feb-08 09:33N 36°57' W 025°09'0 0.0
2016-Feb-08 08:33N 36°57' W 025°09'0 0.0
2016-Feb-08 07:33N 36°57' W 025°09'0 0.0
2016-Feb-08 06:33N 36°57' W 025°09'0 0.0
2016-Feb-08 05:33N 36°57' W 025°09'0 0.0
2016-Feb-08 04:33N 36°57' W 025°09'0 0.0
2016-Feb-08 03:33N 36°57' W 025°09'0 0.0
2016-Feb-08 02:33N 36°57' W 025°09'0 0.0
2016-Feb-08 01:33N 36°57' W 025°09'0 0.0
2016-Feb-08 00:33N 36°57' W 025°09'0 0.0
2016-Feb-07 23:33N 36°57' W 025°09'0 0.0
2016-Feb-07 22:33N 36°57' W 025°09'0 0.0
2016-Feb-07 21:33N 36°57' W 025°09'0 0.0
2016-Feb-07 20:30N 36°57' W 025°09'0 0.0
2016-Feb-07 19:33N 36°57' W 025°09'0 0.0
2016-Feb-07 18:34N 36°57' W 025°09'0 0.0
2016-Feb-07 17:33N 36°57' W 025°09'0 0.0
2016-Feb-07 16:33N 36°57' W 025°09'0 0.0
2016-Feb-07 15:33N 36°57' W 025°09'0 0.0
2016-Feb-07 14:34N 36°57' W 025°09'0 0.0
2016-Feb-07 13:34N 36°57' W 025°09'0 0.0
2016-Feb-07 12:34N 36°57' W 025°09'0 0.0
2016-Feb-07 11:33N 36°57' W 025°09'0 0.0
2016-Feb-07 10:33N 36°57' W 025°09'0 0.0
2016-Feb-07 09:33N 36°57' W 025°09'0 0.0
2016-Feb-07 08:34N 36°57' W 025°09'0 0.0
2016-Feb-07 07:33N 36°57' W 025°09'0 0.0
2016-Feb-07 06:34N 36°57' W 025°09'0 0.0
2016-Feb-07 05:33N 36°57' W 025°09'0 0.0
2016-Feb-07 04:34N 36°57' W 025°09'0 0.0
2016-Feb-07 03:33N 36°57' W 025°09'0 0.0
2016-Feb-07 02:33N 36°57' W 025°09'0 0.0
2016-Feb-07 01:33N 36°57' W 025°09'0 0.0
2016-Feb-07 00:33N 36°57' W 025°09'0 0.0
2016-Feb-06 23:33N 36°57' W 025°09'0 0.0
2016-Feb-06 22:33N 36°57' W 025°09'0 0.0
2016-Feb-06 21:33N 36°57' W 025°09'0 0.0
2016-Feb-06 20:33N 36°57' W 025°09'0 0.0
2016-Feb-06 19:33N 36°57' W 025°09'0 0.0
2016-Feb-06 18:33N 36°57' W 025°09'0 0.0
2016-Feb-06 17:33N 36°57' W 025°09'0 0.0
2016-Feb-06 16:33N 36°57' W 025°09'0 0.0
2016-Feb-06 15:34N 36°57' W 025°09'1 1.4
2016-Feb-06 14:33N 36°56' W 025°07'4 4.2
2016-Feb-06 13:30N 36°56' W 025°02'2 0.5
2016-Feb-06 10:12N 36°56' W 025°04'4 6.2
2016-Feb-06 09:33N 36°56' W 025°09'0 0.2
2016-Feb-06 08:33N 36°57' W 025°09'0 0.0
2016-Feb-06 07:33N 36°57' W 025°09'0 0.0
2016-Feb-06 06:33N 36°57' W 025°09'0 0.0
2016-Feb-06 05:33N 36°57' W 025°09'0 0.0
2016-Feb-06 04:33N 36°57' W 025°09'0 0.0
2016-Feb-06 03:33N 36°57' W 025°09'0 0.0
2016-Feb-06 02:33N 36°57' W 025°09'0 0.0
2016-Feb-06 01:33N 36°57' W 025°09'0 0.0
2016-Feb-06 00:33N 36°57' W 025°09'0 0.0
2016-Feb-05 23:33N 36°57' W 025°09'0 0.0
2016-Feb-05 22:33N 36°57' W 025°09'0 0.0
2016-Feb-05 21:33N 36°57' W 025°09'0 0.0
2016-Feb-05 20:33N 36°57' W 025°09'0 0.0
2016-Feb-05 19:33N 36°57' W 025°09'0 0.0
2016-Feb-05 18:33N 36°57' W 025°09'0 0.0
2016-Feb-05 17:33N 36°57' W 025°09'0 0.0
2016-Feb-05 16:33N 36°57' W 025°09'0 0.0
2016-Feb-05 15:33N 36°57' W 025°09'0 0.0
2016-Feb-05 14:33N 36°57' W 025°09'0 0.0
2016-Feb-05 13:33N 36°57' W 025°09'0 0.0
2016-Feb-05 12:33N 36°57' W 025°09'0 0.1
2016-Feb-05 11:31N 36°57' W 025°09'0 0.0
2016-Feb-05 10:31N 36°57' W 025°09'0 0.1
2016-Feb-05 09:32N 36°57' W 025°09'0 0.0
2016-Feb-05 00:33N 36°57' W 025°09'0 0.0
2016-Feb-04 23:33N 36°57' W 025°09'0 0.0
2016-Feb-04 22:33N 36°57' W 025°09'0 0.0
2016-Feb-04 21:33N 36°57' W 025°09'0 0.0
2016-Feb-04 20:33N 36°57' W 025°09'0 0.0
2016-Feb-04 19:33N 36°57' W 025°09'0 0.0
2016-Feb-04 18:33N 36°57' W 025°09'1 1.0
2016-Feb-04 17:33N 36°56' W 025°08'1 0.2
2016-Feb-04 12:34N 36°56' W 025°07'2 1.9
2016-Feb-04 11:32N 36°57' W 025°09'0 0.0
2016-Feb-04 10:32N 36°57' W 025°09'0 0.0
2016-Feb-04 09:32N 36°57' W 025°09'0 0.0
2016-Feb-04 08:32N 36°57' W 025°09'0 0.0
2016-Feb-04 07:32N 36°57' W 025°09'0 0.0
2016-Feb-04 06:32N 36°57' W 025°09'0 0.0
2016-Feb-04 05:32N 36°57' W 025°09'0 0.0
2016-Feb-04 04:32N 36°57' W 025°09'0 0.0
2016-Feb-04 03:32N 36°57' W 025°09'0 0.0
2016-Feb-04 02:32N 36°57' W 025°09'0 0.0
2016-Feb-04 01:32N 36°57' W 025°09'0 0.0
2016-Feb-04 00:32N 36°57' W 025°09'0 0.0
2016-Feb-03 23:32N 36°57' W 025°09'0 0.0
2016-Feb-03 22:32N 36°57' W 025°09'0 0.0
2016-Feb-03 21:32N 36°57' W 025°09'0 0.0
2016-Feb-03 20:32N 36°57' W 025°09'0 0.0
2016-Feb-03 19:32N 36°57' W 025°09'0 0.4
2016-Feb-03 18:33N 36°56' W 025°09'4 3.6
2016-Feb-03 17:33N 36°59' W 025°11'3 2.7
2016-Feb-03 16:32N 37°01' W 025°08'0 0.1
2016-Feb-03 15:33N 37°01' W 025°08'0 0.1
2016-Feb-03 14:31N 37°01' W 025°08'0 0.2
2016-Feb-03 13:34N 37°01' W 025°09'4 4.3
2016-Feb-03 12:34N 36°57' W 025°11'1 1.5
2016-Feb-03 11:33N 36°57' W 025°09'0 0.0
2016-Feb-03 10:33N 36°57' W 025°09'0 0.0
2016-Feb-03 09:33N 36°57' W 025°09'0 0.0
2016-Feb-03 08:33N 36°57' W 025°09'0 0.0
2016-Feb-03 07:33N 36°57' W 025°09'0 0.0
2016-Feb-03 06:33N 36°57' W 025°09'0 0.0
2016-Feb-03 05:33N 36°57' W 025°09'0 0.0
2016-Feb-03 04:33N 36°57' W 025°09'0 0.0
2016-Feb-03 03:33N 36°57' W 025°09'0 0.0
2016-Feb-03 02:33N 36°57' W 025°09'0 0.0
2016-Feb-03 01:33N 36°57' W 025°09'0 0.0
2016-Feb-03 00:33N 36°57' W 025°09'0 0.0
2016-Feb-02 23:33N 36°57' W 025°09'0 0.0
2016-Feb-02 22:33N 36°57' W 025°09'0 0.0
2016-Feb-02 21:33N 36°57' W 025°09'0 0.0
2016-Feb-02 20:33N 36°57' W 025°09'0 0.0
2016-Feb-02 19:33N 36°57' W 025°09'0 0.0
2016-Feb-02 18:33N 36°57' W 025°09'0 0.0
2016-Feb-02 17:33N 36°57' W 025°09'0 0.0
2016-Feb-02 16:33N 36°57' W 025°09'0 0.0
2016-Feb-02 15:33N 36°57' W 025°09'0 0.0
2016-Feb-02 14:33N 36°57' W 025°09'0 0.0
2016-Feb-02 13:33N 36°57' W 025°09'0 0.0
2016-Feb-02 12:33N 36°57' W 025°09'0 0.0
2016-Feb-02 11:33N 36°57' W 025°09'0 0.0
2016-Feb-02 10:33N 36°57' W 025°09'0 0.0
2016-Feb-02 09:33N 36°57' W 025°09'0 0.0
2016-Feb-02 08:33N 36°57' W 025°09'0 0.0
2016-Feb-02 07:33N 36°57' W 025°09'0 0.0
2016-Feb-02 06:33N 36°57' W 025°09'0 0.0
2016-Feb-02 05:33N 36°57' W 025°09'0 0.0
2016-Feb-02 04:33N 36°57' W 025°09'0 0.0
2016-Feb-02 03:33N 36°57' W 025°09'0 0.0
2016-Feb-02 02:33N 36°57' W 025°09'0 0.0
2016-Feb-02 01:33N 36°57' W 025°09'0 0.0
2016-Feb-02 00:33N 36°57' W 025°09'0 0.0
2016-Feb-01 23:33N 36°57' W 025°09'0 0.0
2016-Feb-01 22:30N 36°57' W 025°09'0 0.0
2016-Feb-01 21:33N 36°57' W 025°09'0 0.0
2016-Feb-01 20:33N 36°57' W 025°09'0 0.0
2016-Feb-01 19:33N 36°57' W 025°09'0 0.0
2016-Feb-01 18:33N 36°57' W 025°09'0 0.0
2016-Feb-01 17:33N 36°57' W 025°09'0 0.0
2016-Feb-01 16:33N 36°57' W 025°09'0 0.0
2016-Feb-01 15:33N 36°57' W 025°09'0 0.0
2016-Feb-01 14:33N 36°57' W 025°09'2 2.4
2016-Feb-01 13:33N 36°56' W 025°06'1 1.5
2016-Feb-01 12:33N 36°56' W 025°08'1 1.0
2016-Feb-01 11:32N 36°57' W 025°09'0 0.0
2016-Feb-01 10:32N 36°57' W 025°09'0 0.0
2016-Feb-01 09:32N 36°57' W 025°09'0 0.0
2016-Feb-01 08:32N 36°57' W 025°09'2 1.8
2016-Feb-01 07:33N 36°57' W 025°11'5 5.2
2016-Feb-01 06:33N 37°02' W 025°12'5 4.9
2016-Feb-01 05:33N 37°07' W 025°13'5 4.9
2016-Feb-01 04:33N 37°12' W 025°16'5 4.7
2016-Feb-01 03:33N 37°15' W 025°19'5 4.5
2016-Feb-01 02:33N 37°19' W 025°22'5 4.6
2016-Feb-01 01:33N 37°23' W 025°25'5 4.9
2016-Feb-01 00:33N 37°28' W 025°28'5 5.3
2016-Jan-31 23:33N 37°33' W 025°30'5 5.5
2016-Jan-31 22:33N 37°37' W 025°34'5 5.0
2016-Jan-31 21:33N 37°42' W 025°37'3 3.2
2016-Jan-31 20:33N 37°44' W 025°40'  
Track history (hours):
 
Tides and Currents Weather Stations Pressure Air Temp Water Temp Dewpoint Dewpoint Depression Visibility Wind Speed Wind Dir Waves Ship Positions

Dragocidental

Last reported at 2016-Feb-09 06:32 UTC. Time now 2016-Feb-09 07:44 UTC.
Position N 36°57' W 025°09'.

Length 30 m.

Type: Dredging. MMSI: 204671360.

Date/timePositionNaut miles runAvg speedWind from/ knotsBaromVisibWave heightAir tempDewpointWater temp
2016-Feb-09 06:32N 36°57' W 025°09'0 0.0
2016-Feb-09 05:32N 36°57' W 025°09'0 0.0
2016-Feb-09 04:32N 36°57' W 025°09'0 0.0
2016-Feb-09 03:32N 36°57' W 025°09'0 0.0
2016-Feb-09 02:32N 36°57' W 025°09'0 0.0
2016-Feb-09 01:32N 36°57' W 025°09'0 0.0
2016-Feb-09 00:32N 36°57' W 025°09'0 0.0
2016-Feb-08 23:32N 36°57' W 025°09'0 0.0
2016-Feb-08 22:32N 36°57' W 025°09'0 0.0
2016-Feb-08 21:32N 36°57' W 025°09'0 0.0
2016-Feb-08 20:32N 36°57' W 025°09'0 0.0
2016-Feb-08 19:32N 36°57' W 025°09'0 0.0
2016-Feb-08 18:32N 36°57' W 025°09'1 1.2
2016-Feb-08 17:33N 36°56' W 025°08'5 1.5
2016-Feb-08 14:28N 36°56' W 025°02'2 1.2
2016-Feb-08 12:33N 36°56' W 025°05'4 3.5
2016-Feb-08 11:33N 36°57' W 025°09'0 0.0
2016-Feb-08 10:33N 36°57' W 025°09'0 0.0
2016-Feb-08 09:33N 36°57' W 025°09'0 0.0
2016-Feb-08 08:33N 36°57' W 025°09'0 0.0
2016-Feb-08 07:33N 36°57' W 025°09'0 0.0
2016-Feb-08 06:33N 36°57' W 025°09'0 0.0
2016-Feb-08 05:33N 36°57' W 025°09'0 0.0
2016-Feb-08 04:33N 36°57' W 025°09'0 0.0
2016-Feb-08 03:33N 36°57' W 025°09'0 0.0
2016-Feb-08 02:33N 36°57' W 025°09'0 0.0
2016-Feb-08 01:33N 36°57' W 025°09'0 0.0
2016-Feb-08 00:33N 36°57' W 025°09'0 0.0
2016-Feb-07 23:33N 36°57' W 025°09'0 0.0
2016-Feb-07 22:33N 36°57' W 025°09'0 0.0
2016-Feb-07 21:33N 36°57' W 025°09'0 0.0
2016-Feb-07 20:30N 36°57' W 025°09'0 0.0
2016-Feb-07 19:33N 36°57' W 025°09'0 0.0
2016-Feb-07 18:34N 36°57' W 025°09'0 0.0
2016-Feb-07 17:33N 36°57' W 025°09'0 0.0
2016-Feb-07 16:33N 36°57' W 025°09'0 0.0
2016-Feb-07 15:33N 36°57' W 025°09'0 0.0
2016-Feb-07 14:34N 36°57' W 025°09'0 0.0
2016-Feb-07 13:34N 36°57' W 025°09'0 0.0
2016-Feb-07 12:34N 36°57' W 025°09'0 0.0
2016-Feb-07 11:33N 36°57' W 025°09'0 0.0
2016-Feb-07 10:33N 36°57' W 025°09'0 0.0
2016-Feb-07 09:33N 36°57' W 025°09'0 0.0
2016-Feb-07 08:34N 36°57' W 025°09'0 0.0
2016-Feb-07 07:33N 36°57' W 025°09'0 0.0
2016-Feb-07 06:34N 36°57' W 025°09'0 0.0
2016-Feb-07 05:33N 36°57' W 025°09'0 0.0
2016-Feb-07 04:34N 36°57' W 025°09'0 0.0
2016-Feb-07 03:33N 36°57' W 025°09'0 0.0
2016-Feb-07 02:33N 36°57' W 025°09'0 0.0
2016-Feb-07 01:33N 36°57' W 025°09'0 0.0
2016-Feb-07 00:33N 36°57' W 025°09'0 0.0
2016-Feb-06 23:33N 36°57' W 025°09'0 0.0
2016-Feb-06 22:33N 36°57' W 025°09'0 0.0
2016-Feb-06 21:33N 36°57' W 025°09'0 0.0
2016-Feb-06 20:33N 36°57' W 025°09'0 0.0
2016-Feb-06 19:33N 36°57' W 025°09'0 0.0
2016-Feb-06 18:33N 36°57' W 025°09'0 0.0
2016-Feb-06 17:33N 36°57' W 025°09'0 0.0
2016-Feb-06 16:33N 36°57' W 025°09'0 0.0
2016-Feb-06 15:34N 36°57' W 025°09'1 1.4
2016-Feb-06 14:33N 36°56' W 025°07'4 4.2
2016-Feb-06 13:30N 36°56' W 025°02'2 0.5
2016-Feb-06 10:12N 36°56' W 025°04'4 6.2
2016-Feb-06 09:33N 36°56' W 025°09'0 0.2
2016-Feb-06 08:33N 36°57' W 025°09'0 0.0
2016-Feb-06 07:33N 36°57' W 025°09'0 0.0
2016-Feb-06 06:33N 36°57' W 025°09'0 0.0
2016-Feb-06 05:33N 36°57' W 025°09'0 0.0
2016-Feb-06 04:33N 36°57' W 025°09'0 0.0
2016-Feb-06 03:33N 36°57' W 025°09'0 0.0
2016-Feb-06 02:33N 36°57' W 025°09'0 0.0
2016-Feb-06 01:33N 36°57' W 025°09'0 0.0
2016-Feb-06 00:33N 36°57' W 025°09'0 0.0
2016-Feb-05 23:33N 36°57' W 025°09'0 0.0
2016-Feb-05 22:33N 36°57' W 025°09'0 0.0
2016-Feb-05 21:33N 36°57' W 025°09'0 0.0
2016-Feb-05 20:33N 36°57' W 025°09'0 0.0
2016-Feb-05 19:33N 36°57' W 025°09'0 0.0
2016-Feb-05 18:33N 36°57' W 025°09'0 0.0
2016-Feb-05 17:33N 36°57' W 025°09'0 0.0
2016-Feb-05 16:33N 36°57' W 025°09'0 0.0
2016-Feb-05 15:33N 36°57' W 025°09'0 0.0
2016-Feb-05 14:33N 36°57' W 025°09'0 0.0
2016-Feb-05 13:33N 36°57' W 025°09'0 0.0
2016-Feb-05 12:33N 36°57' W 025°09'0 0.1
2016-Feb-05 11:31N 36°57' W 025°09'0 0.0
2016-Feb-05 10:31N 36°57' W 025°09'0 0.1
2016-Feb-05 09:32N 36°57' W 025°09'0 0.0
2016-Feb-05 00:33N 36°57' W 025°09'0 0.0
2016-Feb-04 23:33N 36°57' W 025°09'0 0.0
2016-Feb-04 22:33N 36°57' W 025°09'0 0.0
2016-Feb-04 21:33N 36°57' W 025°09'0 0.0
2016-Feb-04 20:33N 36°57' W 025°09'0 0.0
2016-Feb-04 19:33N 36°57' W 025°09'0 0.0
2016-Feb-04 18:33N 36°57' W 025°09'1 1.0
2016-Feb-04 17:33N 36°56' W 025°08'1 0.2
2016-Feb-04 12:34N 36°56' W 025°07'2 1.9
2016-Feb-04 11:32N 36°57' W 025°09'0 0.0
2016-Feb-04 10:32N 36°57' W 025°09'0 0.0
2016-Feb-04 09:32N 36°57' W 025°09'0 0.0
2016-Feb-04 08:32N 36°57' W 025°09'0 0.0
2016-Feb-04 07:32N 36°57' W 025°09'0 0.0
2016-Feb-04 06:32N 36°57' W 025°09'0 0.0
2016-Feb-04 05:32N 36°57' W 025°09'0 0.0
2016-Feb-04 04:32N 36°57' W 025°09'0 0.0
2016-Feb-04 03:32N 36°57' W 025°09'0 0.0
2016-Feb-04 02:32N 36°57' W 025°09'0 0.0
2016-Feb-04 01:32N 36°57' W 025°09'0 0.0
2016-Feb-04 00:32N 36°57' W 025°09'0 0.0
2016-Feb-03 23:32N 36°57' W 025°09'0 0.0
2016-Feb-03 22:32N 36°57' W 025°09'0 0.0
2016-Feb-03 21:32N 36°57' W 025°09'0 0.0
2016-Feb-03 20:32N 36°57' W 025°09'0 0.0
2016-Feb-03 19:32N 36°57' W 025°09'0 0.4
2016-Feb-03 18:33N 36°56' W 025°09'4 3.6
2016-Feb-03 17:33N 36°59' W 025°11'3 2.7
2016-Feb-03 16:32N 37°01' W 025°08'0 0.1
2016-Feb-03 15:33N 37°01' W 025°08'0 0.1
2016-Feb-03 14:31N 37°01' W 025°08'0 0.2
2016-Feb-03 13:34N 37°01' W 025°09'4 4.3
2016-Feb-03 12:34N 36°57' W 025°11'1 1.5
2016-Feb-03 11:33N 36°57' W 025°09'0 0.0
2016-Feb-03 10:33N 36°57' W 025°09'0 0.0
2016-Feb-03 09:33N 36°57' W 025°09'0 0.0
2016-Feb-03 08:33N 36°57' W 025°09'0 0.0
2016-Feb-03 07:33N 36°57' W 025°09'0 0.0
2016-Feb-03 06:33N 36°57' W 025°09'0 0.0
2016-Feb-03 05:33N 36°57' W 025°09'0 0.0
2016-Feb-03 04:33N 36°57' W 025°09'0 0.0
2016-Feb-03 03:33N 36°57' W 025°09'0 0.0
2016-Feb-03 02:33N 36°57' W 025°09'0 0.0
2016-Feb-03 01:33N 36°57' W 025°09'0 0.0
2016-Feb-03 00:33N 36°57' W 025°09'0 0.0
2016-Feb-02 23:33N 36°57' W 025°09'0 0.0
2016-Feb-02 22:33N 36°57' W 025°09'0 0.0
2016-Feb-02 21:33N 36°57' W 025°09'0 0.0
2016-Feb-02 20:33N 36°57' W 025°09'0 0.0
2016-Feb-02 19:33N 36°57' W 025°09'0 0.0
2016-Feb-02 18:33N 36°57' W 025°09'0 0.0
2016-Feb-02 17:33N 36°57' W 025°09'0 0.0
2016-Feb-02 16:33N 36°57' W 025°09'0 0.0
2016-Feb-02 15:33N 36°57' W 025°09'0 0.0
2016-Feb-02 14:33N 36°57' W 025°09'0 0.0
2016-Feb-02 13:33N 36°57' W 025°09'0 0.0
2016-Feb-02 12:33N 36°57' W 025°09'0 0.0
2016-Feb-02 11:33N 36°57' W 025°09'0 0.0
2016-Feb-02 10:33N 36°57' W 025°09'0 0.0
2016-Feb-02 09:33N 36°57' W 025°09'0 0.0
2016-Feb-02 08:33N 36°57' W 025°09'0 0.0
2016-Feb-02 07:33N 36°57' W 025°09'0 0.0
2016-Feb-02 06:33N 36°57' W 025°09'0 0.0
2016-Feb-02 05:33N 36°57' W 025°09'0 0.0
2016-Feb-02 04:33N 36°57' W 025°09'0 0.0
2016-Feb-02 03:33N 36°57' W 025°09'0 0.0
2016-Feb-02 02:33N 36°57' W 025°09'0 0.0
2016-Feb-02 01:33N 36°57' W 025°09'0 0.0
2016-Feb-02 00:33N 36°57' W 025°09'0 0.0
2016-Feb-01 23:33N 36°57' W 025°09'0 0.0
2016-Feb-01 22:30N 36°57' W 025°09'0 0.0
2016-Feb-01 21:33N 36°57' W 025°09'0 0.0
2016-Feb-01 20:33N 36°57' W 025°09'0 0.0
2016-Feb-01 19:33N 36°57' W 025°09'0 0.0
2016-Feb-01 18:33N 36°57' W 025°09'0 0.0
2016-Feb-01 17:33N 36°57' W 025°09'0 0.0
2016-Feb-01 16:33N 36°57' W 025°09'0 0.0
2016-Feb-01 15:33N 36°57' W 025°09'0 0.0
2016-Feb-01 14:33N 36°57' W 025°09'2 2.4
2016-Feb-01 13:33N 36°56' W 025°06'1 1.5
2016-Feb-01 12:33N 36°56' W 025°08'1 1.0
2016-Feb-01 11:32N 36°57' W 025°09'0 0.0
2016-Feb-01 10:32N 36°57' W 025°09'0 0.0
2016-Feb-01 09:32N 36°57' W 025°09'0 0.0
2016-Feb-01 08:32N 36°57' W 025°09'2 1.8
2016-Feb-01 07:33N 36°57' W 025°11'5 5.2
2016-Feb-01 06:33N 37°02' W 025°12'5 4.9
2016-Feb-01 05:33N 37°07' W 025°13'5 4.9
2016-Feb-01 04:33N 37°12' W 025°16'5 4.7
2016-Feb-01 03:33N 37°15' W 025°19'5 4.5
2016-Feb-01 02:33N 37°19' W 025°22'5 4.6
2016-Feb-01 01:33N 37°23' W 025°25'5 4.9
2016-Feb-01 00:33N 37°28' W 025°28'5 5.3
2016-Jan-31 23:33N 37°33' W 025°30'5 5.5
2016-Jan-31 22:33N 37°37' W 025°34'5 5.0
2016-Jan-31 21:33N 37°42' W 025°37'3 3.2
2016-Jan-31 20:33N 37°44' W 025°40'  

Dump ship's entire track history